sensor_id;sensor_type;location;lat;lon;timestamp;P1;durP1;ratioP1;P2;durP2;ratioP2
7965;SDS011;4028;43.272;26.932;2023-08-21T00:01:56;5.97;;;4.15;;
7965;SDS011;4028;43.272;26.932;2023-08-21T00:04:22;7.57;;;4.20;;
7965;SDS011;4028;43.272;26.932;2023-08-21T00:06:47;8.07;;;3.90;;
7965;SDS011;4028;43.272;26.932;2023-08-21T00:09:13;5.50;;;3.83;;
7965;SDS011;4028;43.272;26.932;2023-08-21T00:11:38;5.95;;;3.78;;
7965;SDS011;4028;43.272;26.932;2023-08-21T00:14:04;7.47;;;3.92;;
7965;SDS011;4028;43.272;26.932;2023-08-21T00:16:29;8.02;;;4.40;;
7965;SDS011;4028;43.272;26.932;2023-08-21T00:18:55;6.68;;;4.07;;
7965;SDS011;4028;43.272;26.932;2023-08-21T00:21:20;6.03;;;4.05;;
7965;SDS011;4028;43.272;26.932;2023-08-21T00:23:46;7.50;;;3.83;;
7965;SDS011;4028;43.272;26.932;2023-08-21T00:26:12;4.93;;;3.83;;
7965;SDS011;4028;43.272;26.932;2023-08-21T00:28:37;5.15;;;3.60;;
7965;SDS011;4028;43.272;26.932;2023-08-21T00:31:03;4.55;;;4.03;;
7965;SDS011;4028;43.272;26.932;2023-08-21T00:33:32;7.28;;;3.75;;
7965;SDS011;4028;43.272;26.932;2023-08-21T00:35:58;4.82;;;3.72;;
7965;SDS011;4028;43.272;26.932;2023-08-21T00:38:24;5.80;;;4.10;;
7965;SDS011;4028;43.272;26.932;2023-08-21T00:40:50;7.25;;;4.20;;
7965;SDS011;4028;43.272;26.932;2023-08-21T00:43:16;8.25;;;3.70;;
7965;SDS011;4028;43.272;26.932;2023-08-21T00:45:43;8.38;;;4.10;;
7965;SDS011;4028;43.272;26.932;2023-08-21T00:48:11;4.18;;;3.78;;
7965;SDS011;4028;43.272;26.932;2023-08-21T00:50:38;4.35;;;3.92;;
7965;SDS011;4028;43.272;26.932;2023-08-21T00:53:05;6.57;;;3.90;;
7965;SDS011;4028;43.272;26.932;2023-08-21T00:55:31;5.00;;;4.03;;
7965;SDS011;4028;43.272;26.932;2023-08-21T00:57:57;4.93;;;3.92;;
7965;SDS011;4028;43.272;26.932;2023-08-21T01:00:24;6.50;;;4.13;;
7965;SDS011;4028;43.272;26.932;2023-08-21T01:02:51;4.25;;;3.80;;
7965;SDS011;4028;43.272;26.932;2023-08-21T01:05:17;5.22;;;4.10;;
7965;SDS011;4028;43.272;26.932;2023-08-21T01:07:55;7.35;;;4.05;;
7965;SDS011;4028;43.272;26.932;2023-08-21T01:13:19;5.18;;;4.03;;
7965;SDS011;4028;43.272;26.932;2023-08-21T01:15:52;11.48;;;4.13;;
7965;SDS011;4028;43.272;26.932;2023-08-21T01:18:19;4.82;;;4.10;;
7965;SDS011;4028;43.272;26.932;2023-08-21T01:20:46;4.55;;;3.70;;
7965;SDS011;4028;43.272;26.932;2023-08-21T01:23:26;4.55;;;3.85;;
7965;SDS011;4028;43.272;26.932;2023-08-21T01:25:58;6.43;;;4.43;;
7965;SDS011;4028;43.272;26.932;2023-08-21T01:28:24;5.65;;;4.22;;
7965;SDS011;4028;43.272;26.932;2023-08-21T01:30:50;5.07;;;4.55;;
7965;SDS011;4028;43.272;26.932;2023-08-21T01:33:20;6.32;;;4.43;;
7965;SDS011;4028;43.272;26.932;2023-08-21T01:35:48;9.63;;;4.70;;
7965;SDS011;4028;43.272;26.932;2023-08-21T01:38:14;6.25;;;4.50;;
7965;SDS011;4028;43.272;26.932;2023-08-21T01:40:39;5.18;;;4.40;;
7965;SDS011;4028;43.272;26.932;2023-08-21T01:43:05;5.00;;;4.50;;
7965;SDS011;4028;43.272;26.932;2023-08-21T01:45:30;8.15;;;5.03;;
7965;SDS011;4028;43.272;26.932;2023-08-21T01:47:56;7.93;;;5.00;;
7965;SDS011;4028;43.272;26.932;2023-08-21T01:50:21;7.32;;;4.85;;
7965;SDS011;4028;43.272;26.932;2023-08-21T01:52:47;5.35;;;4.60;;
7965;SDS011;4028;43.272;26.932;2023-08-21T01:55:12;9.43;;;4.68;;
7965;SDS011;4028;43.272;26.932;2023-08-21T01:57:38;5.78;;;5.18;;
7965;SDS011;4028;43.272;26.932;2023-08-21T02:00:03;7.97;;;5.30;;
7965;SDS011;4028;43.272;26.932;2023-08-21T02:02:30;6.50;;;5.00;;
7965;SDS011;4028;43.272;26.932;2023-08-21T02:04:55;4.95;;;4.47;;
7965;SDS011;4028;43.272;26.932;2023-08-21T02:07:21;5.97;;;4.95;;
7965;SDS011;4028;43.272;26.932;2023-08-21T02:09:46;6.05;;;5.47;;
7965;SDS011;4028;43.272;26.932;2023-08-21T02:12:12;8.38;;;5.35;;
7965;SDS011;4028;43.272;26.932;2023-08-21T02:14:37;7.05;;;5.75;;
7965;SDS011;4028;43.272;26.932;2023-08-21T02:17:02;7.50;;;5.70;;
7965;SDS011;4028;43.272;26.932;2023-08-21T02:19:28;6.10;;;5.53;;
7965;SDS011;4028;43.272;26.932;2023-08-21T02:21:53;10.73;;;5.57;;
7965;SDS011;4028;43.272;26.932;2023-08-21T02:24:19;8.65;;;5.18;;
7965;SDS011;4028;43.272;26.932;2023-08-21T02:26:44;10.48;;;5.55;;
7965;SDS011;4028;43.272;26.932;2023-08-21T02:29:11;6.35;;;5.63;;
7965;SDS011;4028;43.272;26.932;2023-08-21T02:31:36;6.70;;;5.75;;
7965;SDS011;4028;43.272;26.932;2023-08-21T02:34:02;8.70;;;6.00;;
7965;SDS011;4028;43.272;26.932;2023-08-21T02:36:27;6.50;;;5.90;;
7965;SDS011;4028;43.272;26.932;2023-08-21T02:38:52;6.68;;;6.00;;
7965;SDS011;4028;43.272;26.932;2023-08-21T02:41:18;7.97;;;5.50;;
7965;SDS011;4028;43.272;26.932;2023-08-21T02:43:44;8.95;;;5.80;;
7965;SDS011;4028;43.272;26.932;2023-08-21T02:46:09;6.47;;;5.90;;
7965;SDS011;4028;43.272;26.932;2023-08-21T02:48:35;9.45;;;6.30;;
7965;SDS011;4028;43.272;26.932;2023-08-21T02:51:00;8.70;;;5.95;;
7965;SDS011;4028;43.272;26.932;2023-08-21T02:53:27;8.43;;;5.65;;
7965;SDS011;4028;43.272;26.932;2023-08-21T02:55:53;9.32;;;5.90;;
7965;SDS011;4028;43.272;26.932;2023-08-21T02:58:19;6.57;;;5.90;;
7965;SDS011;4028;43.272;26.932;2023-08-21T03:00:44;6.38;;;5.78;;
7965;SDS011;4028;43.272;26.932;2023-08-21T03:03:09;9.98;;;5.97;;
7965;SDS011;4028;43.272;26.932;2023-08-21T03:05:36;6.97;;;6.05;;
7965;SDS011;4028;43.272;26.932;2023-08-21T03:08:01;7.70;;;6.38;;
7965;SDS011;4028;43.272;26.932;2023-08-21T03:10:27;7.35;;;5.68;;
7965;SDS011;4028;43.272;26.932;2023-08-21T03:12:54;6.93;;;6.22;;
7965;SDS011;4028;43.272;26.932;2023-08-21T03:15:20;9.90;;;6.15;;
7965;SDS011;4028;43.272;26.932;2023-08-21T03:17:45;6.93;;;6.20;;
7965;SDS011;4028;43.272;26.932;2023-08-21T03:20:11;8.00;;;6.40;;
7965;SDS011;4028;43.272;26.932;2023-08-21T03:22:36;7.13;;;6.18;;
7965;SDS011;4028;43.272;26.932;2023-08-21T03:25:02;7.78;;;6.30;;
7965;SDS011;4028;43.272;26.932;2023-08-21T03:27:28;9.05;;;6.10;;
7965;SDS011;4028;43.272;26.932;2023-08-21T03:29:53;10.88;;;5.90;;
7965;SDS011;4028;43.272;26.932;2023-08-21T03:32:19;10.52;;;7.18;;
7965;SDS011;4028;43.272;26.932;2023-08-21T03:34:44;8.40;;;6.57;;
7965;SDS011;4028;43.272;26.932;2023-08-21T03:37:10;8.52;;;6.35;;
7965;SDS011;4028;43.272;26.932;2023-08-21T03:39:35;6.90;;;6.30;;
7965;SDS011;4028;43.272;26.932;2023-08-21T03:42:01;12.85;;;6.18;;
7965;SDS011;4028;43.272;26.932;2023-08-21T03:44:27;8.23;;;5.93;;
7965;SDS011;4028;43.272;26.932;2023-08-21T03:46:52;6.90;;;6.20;;
7965;SDS011;4028;43.272;26.932;2023-08-21T03:49:18;9.88;;;6.13;;
7965;SDS011;4028;43.272;26.932;2023-08-21T03:51:43;9.68;;;6.88;;
7965;SDS011;4028;43.272;26.932;2023-08-21T03:54:09;10.43;;;6.75;;
7965;SDS011;4028;43.272;26.932;2023-08-21T03:56:35;11.35;;;6.60;;
7965;SDS011;4028;43.272;26.932;2023-08-21T03:59:01;7.53;;;6.03;;
7965;SDS011;4028;43.272;26.932;2023-08-21T04:01:27;15.27;;;6.97;;
7965;SDS011;4028;43.272;26.932;2023-08-21T04:03:52;7.35;;;6.65;;
7965;SDS011;4028;43.272;26.932;2023-08-21T04:06:17;9.82;;;6.90;;
7965;SDS011;4028;43.272;26.932;2023-08-21T04:08:43;8.93;;;6.85;;
7965;SDS011;4028;43.272;26.932;2023-08-21T04:11:08;12.68;;;6.75;;
7965;SDS011;4028;43.272;26.932;2023-08-21T04:13:34;12.98;;;6.43;;
7965;SDS011;4028;43.272;26.932;2023-08-21T04:15:59;7.60;;;6.18;;
7965;SDS011;4028;43.272;26.932;2023-08-21T04:18:25;12.10;;;6.28;;
7965;SDS011;4028;43.272;26.932;2023-08-21T04:20:51;10.90;;;6.70;;
7965;SDS011;4028;43.272;26.932;2023-08-21T04:23:16;9.40;;;6.43;;
7965;SDS011;4028;43.272;26.932;2023-08-21T04:25:42;11.75;;;6.75;;
7965;SDS011;4028;43.272;26.932;2023-08-21T04:28:08;11.25;;;6.95;;
7965;SDS011;4028;43.272;26.932;2023-08-21T04:30:33;9.68;;;6.80;;
7965;SDS011;4028;43.272;26.932;2023-08-21T04:32:59;11.50;;;7.13;;
7965;SDS011;4028;43.272;26.932;2023-08-21T04:35:25;8.77;;;6.65;;
7965;SDS011;4028;43.272;26.932;2023-08-21T04:37:51;10.07;;;6.88;;
7965;SDS011;4028;43.272;26.932;2023-08-21T04:40:16;14.13;;;7.78;;
7965;SDS011;4028;43.272;26.932;2023-08-21T04:42:45;14.15;;;7.47;;
7965;SDS011;4028;43.272;26.932;2023-08-21T04:45:10;10.60;;;6.97;;
7965;SDS011;4028;43.272;26.932;2023-08-21T04:47:36;9.30;;;6.40;;
7965;SDS011;4028;43.272;26.932;2023-08-21T04:50:01;16.20;;;7.38;;
7965;SDS011;4028;43.272;26.932;2023-08-21T04:52:27;9.35;;;6.70;;
7965;SDS011;4028;43.272;26.932;2023-08-21T04:54:53;11.85;;;6.70;;
7965;SDS011;4028;43.272;26.932;2023-08-21T04:57:19;9.35;;;6.70;;
7965;SDS011;4028;43.272;26.932;2023-08-21T04:59:46;11.65;;;7.20;;
7965;SDS011;4028;43.272;26.932;2023-08-21T05:02:12;12.13;;;7.10;;
7965;SDS011;4028;43.272;26.932;2023-08-21T05:04:37;11.75;;;6.55;;
7965;SDS011;4028;43.272;26.932;2023-08-21T05:07:03;12.27;;;6.13;;
7965;SDS011;4028;43.272;26.932;2023-08-21T05:09:29;7.78;;;7.00;;
7965;SDS011;4028;43.272;26.932;2023-08-21T05:11:55;7.55;;;5.97;;
7965;SDS011;4028;43.272;26.932;2023-08-21T05:14:21;12.30;;;6.65;;
7965;SDS011;4028;43.272;26.932;2023-08-21T05:16:48;6.93;;;6.13;;
7965;SDS011;4028;43.272;26.932;2023-08-21T05:19:14;6.90;;;6.20;;
7965;SDS011;4028;43.272;26.932;2023-08-21T05:21:39;11.15;;;6.13;;
7965;SDS011;4028;43.272;26.932;2023-08-21T05:24:05;12.05;;;6.30;;
7965;SDS011;4028;43.272;26.932;2023-08-21T05:26:30;28.70;;;8.55;;
7965;SDS011;4028;43.272;26.932;2023-08-21T05:28:56;22.67;;;7.53;;
7965;SDS011;4028;43.272;26.932;2023-08-21T05:31:21;11.82;;;6.88;;
7965;SDS011;4028;43.272;26.932;2023-08-21T05:33:47;10.77;;;6.72;;
7965;SDS011;4028;43.272;26.932;2023-08-21T05:36:12;12.25;;;7.25;;
7965;SDS011;4028;43.272;26.932;2023-08-21T05:38:38;13.75;;;6.20;;
7965;SDS011;4028;43.272;26.932;2023-08-21T05:41:03;10.50;;;6.25;;
7965;SDS011;4028;43.272;26.932;2023-08-21T05:43:29;6.20;;;5.60;;
7965;SDS011;4028;43.272;26.932;2023-08-21T05:45:55;7.70;;;6.20;;
7965;SDS011;4028;43.272;26.932;2023-08-21T05:48:21;8.93;;;6.10;;
7965;SDS011;4028;43.272;26.932;2023-08-21T05:50:50;7.82;;;5.88;;
7965;SDS011;4028;43.272;26.932;2023-08-21T05:53:18;9.60;;;6.40;;
7965;SDS011;4028;43.272;26.932;2023-08-21T05:55:44;7.60;;;6.40;;
7965;SDS011;4028;43.272;26.932;2023-08-21T05:58:09;7.53;;;6.38;;
7965;SDS011;4028;43.272;26.932;2023-08-21T06:00:35;9.27;;;6.03;;
7965;SDS011;4028;43.272;26.932;2023-08-21T06:03:01;7.60;;;6.18;;
7965;SDS011;4028;43.272;26.932;2023-08-21T06:05:26;11.65;;;6.70;;
7965;SDS011;4028;43.272;26.932;2023-08-21T06:07:52;8.80;;;6.07;;
7965;SDS011;4028;43.272;26.932;2023-08-21T06:10:18;7.63;;;6.20;;
7965;SDS011;4028;43.272;26.932;2023-08-21T06:12:43;10.93;;;6.45;;
7965;SDS011;4028;43.272;26.932;2023-08-21T06:15:09;11.98;;;6.13;;
7965;SDS011;4028;43.272;26.932;2023-08-21T06:17:38;8.70;;;6.40;;
7965;SDS011;4028;43.272;26.932;2023-08-21T06:20:04;8.65;;;6.68;;
7965;SDS011;4028;43.272;26.932;2023-08-21T06:22:34;9.00;;;6.40;;
7965;SDS011;4028;43.272;26.932;2023-08-21T06:25:00;8.75;;;6.88;;
7965;SDS011;4028;43.272;26.932;2023-08-21T06:27:25;10.98;;;6.50;;
7965;SDS011;4028;43.272;26.932;2023-08-21T06:29:51;7.43;;;6.80;;
7965;SDS011;4028;43.272;26.932;2023-08-21T06:32:16;6.63;;;6.18;;
7965;SDS011;4028;43.272;26.932;2023-08-21T06:34:42;9.32;;;6.65;;
7965;SDS011;4028;43.272;26.932;2023-08-21T06:37:07;7.97;;;7.10;;
7965;SDS011;4028;43.272;26.932;2023-08-21T06:39:33;7.38;;;6.68;;
7965;SDS011;4028;43.272;26.932;2023-08-21T06:41:59;10.13;;;6.63;;
7965;SDS011;4028;43.272;26.932;2023-08-21T06:44:25;7.43;;;6.70;;
7965;SDS011;4028;43.272;26.932;2023-08-21T06:46:51;9.98;;;6.38;;
7965;SDS011;4028;43.272;26.932;2023-08-21T06:49:17;9.75;;;6.80;;
7965;SDS011;4028;43.272;26.932;2023-08-21T06:51:42;7.80;;;6.55;;
7965;SDS011;4028;43.272;26.932;2023-08-21T06:54:08;9.80;;;7.00;;
7965;SDS011;4028;43.272;26.932;2023-08-21T06:56:34;6.70;;;6.20;;
7965;SDS011;4028;43.272;26.932;2023-08-21T06:58:59;7.85;;;6.95;;
7965;SDS011;4028;43.272;26.932;2023-08-21T07:01:25;7.45;;;6.75;;
7965;SDS011;4028;43.272;26.932;2023-08-21T07:03:50;7.35;;;6.60;;
7965;SDS011;4028;43.272;26.932;2023-08-21T07:06:16;7.00;;;6.35;;
7965;SDS011;4028;43.272;26.932;2023-08-21T07:08:41;6.60;;;6.00;;
7965;SDS011;4028;43.272;26.932;2023-08-21T07:11:07;8.05;;;7.30;;
7965;SDS011;4028;43.272;26.932;2023-08-21T07:13:35;13.40;;;6.82;;
7965;SDS011;4028;43.272;26.932;2023-08-21T07:16:00;9.40;;;6.60;;
7965;SDS011;4028;43.272;26.932;2023-08-21T07:18:28;7.63;;;6.43;;
7965;SDS011;4028;43.272;26.932;2023-08-21T07:20:54;7.47;;;6.85;;
7965;SDS011;4028;43.272;26.932;2023-08-21T07:23:20;9.90;;;6.82;;
7965;SDS011;4028;43.272;26.932;2023-08-21T07:25:46;8.05;;;6.57;;
7965;SDS011;4028;43.272;26.932;2023-08-21T07:28:11;8.05;;;7.25;;
7965;SDS011;4028;43.272;26.932;2023-08-21T07:30:37;7.82;;;6.80;;
7965;SDS011;4028;43.272;26.932;2023-08-21T07:33:04;8.27;;;7.30;;
7965;SDS011;4028;43.272;26.932;2023-08-21T07:35:30;9.13;;;6.63;;
7965;SDS011;4028;43.272;26.932;2023-08-21T07:37:56;7.75;;;6.97;;
7965;SDS011;4028;43.272;26.932;2023-08-21T07:40:21;7.88;;;6.43;;
7965;SDS011;4028;43.272;26.932;2023-08-21T07:42:47;7.97;;;6.93;;
7965;SDS011;4028;43.272;26.932;2023-08-21T07:45:13;7.05;;;6.40;;
7965;SDS011;4028;43.272;26.932;2023-08-21T07:47:38;8.38;;;6.65;;
7965;SDS011;4028;43.272;26.932;2023-08-21T07:50:05;7.80;;;7.05;;
7965;SDS011;4028;43.272;26.932;2023-08-21T07:52:31;12.48;;;7.20;;
7965;SDS011;4028;43.272;26.932;2023-08-21T07:54:56;9.27;;;7.57;;
7965;SDS011;4028;43.272;26.932;2023-08-21T07:57:24;8.43;;;6.90;;
7965;SDS011;4028;43.272;26.932;2023-08-21T07:59:49;8.75;;;7.18;;
7965;SDS011;4028;43.272;26.932;2023-08-21T08:02:15;8.32;;;6.50;;
7965;SDS011;4028;43.272;26.932;2023-08-21T08:04:40;6.95;;;6.07;;
7965;SDS011;4028;43.272;26.932;2023-08-21T08:07:08;9.00;;;6.90;;
7965;SDS011;4028;43.272;26.932;2023-08-21T08:09:33;7.65;;;7.00;;
7965;SDS011;4028;43.272;26.932;2023-08-21T08:11:59;8.07;;;7.28;;
7965;SDS011;4028;43.272;26.932;2023-08-21T08:14:25;7.15;;;6.53;;
7965;SDS011;4028;43.272;26.932;2023-08-21T08:16:50;8.38;;;6.65;;
7965;SDS011;4028;43.272;26.932;2023-08-21T08:19:16;7.15;;;6.50;;
7965;SDS011;4028;43.272;26.932;2023-08-21T08:21:41;7.85;;;7.05;;
7965;SDS011;4028;43.272;26.932;2023-08-21T08:24:08;8.20;;;6.57;;
7965;SDS011;4028;43.272;26.932;2023-08-21T08:26:34;8.75;;;6.72;;
7965;SDS011;4028;43.272;26.932;2023-08-21T08:28:59;12.23;;;7.15;;
7965;SDS011;4028;43.272;26.932;2023-08-21T08:31:25;47.80;;;11.95;;
7965;SDS011;4028;43.272;26.932;2023-08-21T08:33:52;15.10;;;7.35;;
7965;SDS011;4028;43.272;26.932;2023-08-21T08:36:19;7.63;;;6.80;;
7965;SDS011;4028;43.272;26.932;2023-08-21T08:38:45;7.68;;;6.90;;
7965;SDS011;4028;43.272;26.932;2023-08-21T08:41:56;9.27;;;6.57;;
7965;SDS011;4028;43.272;26.932;2023-08-21T08:44:06;8.68;;;6.07;;
7965;SDS011;4028;43.272;26.932;2023-08-21T08:46:32;8.80;;;6.90;;
7965;SDS011;4028;43.272;26.932;2023-08-21T08:48:57;10.98;;;6.38;;
7965;SDS011;4028;43.272;26.932;2023-08-21T08:51:25;13.60;;;7.32;;
7965;SDS011;4028;43.272;26.932;2023-08-21T08:53:53;21.08;;;6.85;;
7965;SDS011;4028;43.272;26.932;2023-08-21T08:56:20;7.60;;;6.70;;
7965;SDS011;4028;43.272;26.932;2023-08-21T08:58:46;6.88;;;6.18;;
7965;SDS011;4028;43.272;26.932;2023-08-21T09:01:11;9.02;;;6.18;;
7965;SDS011;4028;43.272;26.932;2023-08-21T09:03:37;7.97;;;6.40;;
7965;SDS011;4028;43.272;26.932;2023-08-21T09:06:03;9.27;;;6.63;;
7965;SDS011;4028;43.272;26.932;2023-08-21T09:08:29;7.97;;;7.15;;
7965;SDS011;4028;43.272;26.932;2023-08-21T09:10:54;9.40;;;6.55;;
7965;SDS011;4028;43.272;26.932;2023-08-21T09:13:20;7.82;;;6.60;;
7965;SDS011;4028;43.272;26.932;2023-08-21T09:15:46;8.55;;;7.10;;
7965;SDS011;4028;43.272;26.932;2023-08-21T09:18:18;7.43;;;6.70;;
7965;SDS011;4028;43.272;26.932;2023-08-21T09:20:44;7.97;;;5.60;;
7965;SDS011;4028;43.272;26.932;2023-08-21T09:23:13;6.50;;;5.72;;
7965;SDS011;4028;43.272;26.932;2023-08-21T09:25:40;8.30;;;7.35;;
7965;SDS011;4028;43.272;26.932;2023-08-21T09:28:06;7.85;;;6.55;;
7965;SDS011;4028;43.272;26.932;2023-08-21T09:30:46;12.77;;;9.60;;
7965;SDS011;4028;43.272;26.932;2023-08-21T09:33:13;7.50;;;6.82;;
7965;SDS011;4028;43.272;26.932;2023-08-21T09:35:43;8.70;;;5.78;;
7965;SDS011;4028;43.272;26.932;2023-08-21T09:38:09;6.55;;;5.70;;
7965;SDS011;4028;43.272;26.932;2023-08-21T09:40:38;7.32;;;6.03;;
7965;SDS011;4028;43.272;26.932;2023-08-21T09:43:12;9.02;;;6.03;;
7965;SDS011;4028;43.272;26.932;2023-08-21T09:45:37;6.15;;;5.65;;
7965;SDS011;4028;43.272;26.932;2023-08-21T09:48:04;7.25;;;6.28;;
7965;SDS011;4028;43.272;26.932;2023-08-21T09:50:31;7.03;;;6.40;;
7965;SDS011;4028;43.272;26.932;2023-08-21T09:52:57;6.47;;;5.88;;
7965;SDS011;4028;43.272;26.932;2023-08-21T09:55:23;5.82;;;5.40;;
7965;SDS011;4028;43.272;26.932;2023-08-21T09:57:56;7.35;;;5.72;;
7965;SDS011;4028;43.272;26.932;2023-08-21T10:00:28;10.30;;;5.93;;
7965;SDS011;4028;43.272;26.932;2023-08-21T10:02:55;6.57;;;5.65;;
7965;SDS011;4028;43.272;26.932;2023-08-21T10:05:27;6.53;;;5.90;;
7965;SDS011;4028;43.272;26.932;2023-08-21T10:07:53;11.23;;;5.65;;
7965;SDS011;4028;43.272;26.932;2023-08-21T10:10:20;5.93;;;5.07;;
7965;SDS011;4028;43.272;26.932;2023-08-21T10:12:46;6.15;;;5.50;;
7965;SDS011;4028;43.272;26.932;2023-08-21T10:15:13;6.82;;;5.60;;
7965;SDS011;4028;43.272;26.932;2023-08-21T10:17:48;6.68;;;5.40;;
7965;SDS011;4028;43.272;26.932;2023-08-21T10:20:14;7.85;;;5.63;;
7965;SDS011;4028;43.272;26.932;2023-08-21T10:22:54;16.08;;;5.43;;
7965;SDS011;4028;43.272;26.932;2023-08-21T10:25:21;6.20;;;5.60;;
7965;SDS011;4028;43.272;26.932;2023-08-21T10:27:52;6.25;;;5.75;;
7965;SDS011;4028;43.272;26.932;2023-08-21T10:30:23;7.68;;;5.07;;
7965;SDS011;4028;43.272;26.932;2023-08-21T10:32:50;9.52;;;5.75;;
7965;SDS011;4028;43.272;26.932;2023-08-21T10:35:19;9.57;;;6.07;;
7965;SDS011;4028;43.272;26.932;2023-08-21T10:40:32;7.07;;;5.57;;
7965;SDS011;4028;43.272;26.932;2023-08-21T10:42:58;7.00;;;5.78;;
7965;SDS011;4028;43.272;26.932;2023-08-21T10:45:24;8.55;;;5.55;;
7965;SDS011;4028;43.272;26.932;2023-08-21T10:47:49;10.65;;;5.75;;
7965;SDS011;4028;43.272;26.932;2023-08-21T10:50:15;14.68;;;5.80;;
7965;SDS011;4028;43.272;26.932;2023-08-21T10:52:42;6.80;;;5.80;;
7965;SDS011;4028;43.272;26.932;2023-08-21T10:55:10;7.55;;;6.18;;
7965;SDS011;4028;43.272;26.932;2023-08-21T10:57:37;6.28;;;5.70;;
7965;SDS011;4028;43.272;26.932;2023-08-21T11:00:06;7.20;;;5.57;;
7965;SDS011;4028;43.272;26.932;2023-08-21T11:02:37;7.82;;;5.35;;
7965;SDS011;4028;43.272;26.932;2023-08-21T11:05:04;8.35;;;5.60;;
7965;SDS011;4028;43.272;26.932;2023-08-21T11:07:31;6.80;;;5.38;;
7965;SDS011;4028;43.272;26.932;2023-08-21T11:10:02;7.53;;;4.78;;
7965;SDS011;4028;43.272;26.932;2023-08-21T11:12:28;7.20;;;5.93;;
7965;SDS011;4028;43.272;26.932;2023-08-21T11:14:54;11.05;;;5.90;;
7965;SDS011;4028;43.272;26.932;2023-08-21T11:17:19;7.25;;;5.15;;
7965;SDS011;4028;43.272;26.932;2023-08-21T11:19:45;10.25;;;5.70;;
7965;SDS011;4028;43.272;26.932;2023-08-21T11:22:13;8.40;;;5.63;;
7965;SDS011;4028;43.272;26.932;2023-08-21T11:24:39;7.75;;;5.78;;
7965;SDS011;4028;43.272;26.932;2023-08-21T11:27:08;15.20;;;6.18;;
7965;SDS011;4028;43.272;26.932;2023-08-21T11:32:21;6.35;;;5.68;;
7965;SDS011;4028;43.272;26.932;2023-08-21T11:34:52;6.35;;;5.10;;
7965;SDS011;4028;43.272;26.932;2023-08-21T11:37:20;14.93;;;5.65;;
7965;SDS011;4028;43.272;26.932;2023-08-21T11:39:48;8.15;;;5.80;;
7965;SDS011;4028;43.272;26.932;2023-08-21T11:42:15;12.82;;;5.97;;
7965;SDS011;4028;43.272;26.932;2023-08-21T11:44:42;20.60;;;6.32;;
7965;SDS011;4028;43.272;26.932;2023-08-21T11:47:09;35.22;;;6.97;;
7965;SDS011;4028;43.272;26.932;2023-08-21T11:49:36;7.03;;;6.32;;
7965;SDS011;4028;43.272;26.932;2023-08-21T11:52:02;9.15;;;6.00;;
7965;SDS011;4028;43.272;26.932;2023-08-21T11:54:38;6.70;;;6.10;;
7965;SDS011;4028;43.272;26.932;2023-08-21T11:57:06;6.63;;;5.97;;
7965;SDS011;4028;43.272;26.932;2023-08-21T11:59:33;11.98;;;6.32;;
7965;SDS011;4028;43.272;26.932;2023-08-21T12:01:59;8.13;;;6.28;;
7965;SDS011;4028;43.272;26.932;2023-08-21T12:04:25;8.35;;;6.90;;
7965;SDS011;4028;43.272;26.932;2023-08-21T12:06:52;6.60;;;5.93;;
7965;SDS011;4028;43.272;26.932;2023-08-21T12:09:18;7.07;;;6.13;;
7965;SDS011;4028;43.272;26.932;2023-08-21T12:11:44;7.95;;;5.97;;
7965;SDS011;4028;43.272;26.932;2023-08-21T12:14:10;11.15;;;6.15;;
7965;SDS011;4028;43.272;26.932;2023-08-21T12:16:36;6.60;;;5.90;;
7965;SDS011;4028;43.272;26.932;2023-08-21T12:19:02;6.95;;;5.78;;
7965;SDS011;4028;43.272;26.932;2023-08-21T12:21:28;7.50;;;5.90;;
7965;SDS011;4028;43.272;26.932;2023-08-21T12:23:54;6.45;;;5.85;;
7965;SDS011;4028;43.272;26.932;2023-08-21T12:26:19;6.88;;;6.13;;
7965;SDS011;4028;43.272;26.932;2023-08-21T12:28:48;7.90;;;6.20;;
7965;SDS011;4028;43.272;26.932;2023-08-21T12:31:14;12.25;;;6.57;;
7965;SDS011;4028;43.272;26.932;2023-08-21T12:33:40;9.05;;;6.18;;
7965;SDS011;4028;43.272;26.932;2023-08-21T12:36:05;7.85;;;5.55;;
7965;SDS011;4028;43.272;26.932;2023-08-21T12:38:32;6.78;;;6.10;;
7965;SDS011;4028;43.272;26.932;2023-08-21T12:40:57;6.03;;;5.50;;
7965;SDS011;4028;43.272;26.932;2023-08-21T12:43:23;9.38;;;6.07;;
7965;SDS011;4028;43.272;26.932;2023-08-21T12:45:49;10.52;;;6.53;;
7965;SDS011;4028;43.272;26.932;2023-08-21T12:48:14;14.57;;;6.55;;
7965;SDS011;4028;43.272;26.932;2023-08-21T12:50:40;7.82;;;5.80;;
7965;SDS011;4028;43.272;26.932;2023-08-21T12:53:05;9.32;;;6.65;;
7965;SDS011;4028;43.272;26.932;2023-08-21T12:55:31;24.73;;;7.40;;
7965;SDS011;4028;43.272;26.932;2023-08-21T12:57:56;14.93;;;6.82;;
7965;SDS011;4028;43.272;26.932;2023-08-21T13:00:22;13.20;;;6.10;;
7965;SDS011;4028;43.272;26.932;2023-08-21T13:02:47;10.98;;;6.07;;
7965;SDS011;4028;43.272;26.932;2023-08-21T13:05:13;11.13;;;6.15;;
7965;SDS011;4028;43.272;26.932;2023-08-21T13:07:39;10.13;;;5.78;;
7965;SDS011;4028;43.272;26.932;2023-08-21T13:10:06;7.28;;;6.15;;
7965;SDS011;4028;43.272;26.932;2023-08-21T13:12:32;6.35;;;5.72;;
7965;SDS011;4028;43.272;26.932;2023-08-21T13:14:57;8.38;;;6.30;;
7965;SDS011;4028;43.272;26.932;2023-08-21T13:17:23;18.35;;;7.50;;
7965;SDS011;4028;43.272;26.932;2023-08-21T13:19:49;10.13;;;6.00;;
7965;SDS011;4028;43.272;26.932;2023-08-21T13:22:17;8.57;;;6.00;;
7965;SDS011;4028;43.272;26.932;2023-08-21T13:24:43;26.35;;;6.93;;
7965;SDS011;4028;43.272;26.932;2023-08-21T13:27:09;13.30;;;6.00;;
7965;SDS011;4028;43.272;26.932;2023-08-21T13:29:34;7.93;;;6.00;;
7965;SDS011;4028;43.272;26.932;2023-08-21T13:32:00;9.10;;;5.53;;
7965;SDS011;4028;43.272;26.932;2023-08-21T13:34:25;7.65;;;6.07;;
7965;SDS011;4028;43.272;26.932;2023-08-21T13:36:51;7.30;;;5.95;;
7965;SDS011;4028;43.272;26.932;2023-08-21T13:39:17;6.47;;;6.00;;
7965;SDS011;4028;43.272;26.932;2023-08-21T13:41:43;7.75;;;5.95;;
7965;SDS011;4028;43.272;26.932;2023-08-21T13:44:08;6.50;;;5.93;;
7965;SDS011;4028;43.272;26.932;2023-08-21T13:46:34;6.25;;;5.57;;
7965;SDS011;4028;43.272;26.932;2023-08-21T13:49:00;11.75;;;6.38;;
7965;SDS011;4028;43.272;26.932;2023-08-21T13:51:25;9.00;;;6.07;;
7965;SDS011;4028;43.272;26.932;2023-08-21T13:53:51;9.40;;;6.20;;
7965;SDS011;4028;43.272;26.932;2023-08-21T13:56:16;6.45;;;5.90;;
7965;SDS011;4028;43.272;26.932;2023-08-21T13:58:42;6.30;;;5.70;;
7965;SDS011;4028;43.272;26.932;2023-08-21T14:01:07;7.38;;;5.97;;
7965;SDS011;4028;43.272;26.932;2023-08-21T14:03:33;6.75;;;5.95;;
7965;SDS011;4028;43.272;26.932;2023-08-21T14:05:59;6.30;;;5.68;;
7965;SDS011;4028;43.272;26.932;2023-08-21T14:08:25;6.40;;;5.80;;
7965;SDS011;4028;43.272;26.932;2023-08-21T14:10:50;8.05;;;6.05;;
7965;SDS011;4028;43.272;26.932;2023-08-21T14:13:16;6.70;;;6.00;;
7965;SDS011;4028;43.272;26.932;2023-08-21T14:15:41;8.52;;;5.70;;
7965;SDS011;4028;43.272;26.932;2023-08-21T14:18:07;7.20;;;5.97;;
7965;SDS011;4028;43.272;26.932;2023-08-21T14:20:33;8.00;;;5.32;;
7965;SDS011;4028;43.272;26.932;2023-08-21T14:22:58;9.18;;;6.18;;
7965;SDS011;4028;43.272;26.932;2023-08-21T14:25:24;6.78;;;5.38;;
7965;SDS011;4028;43.272;26.932;2023-08-21T14:27:49;7.45;;;6.00;;
7965;SDS011;4028;43.272;26.932;2023-08-21T14:30:15;8.40;;;6.05;;
7965;SDS011;4028;43.272;26.932;2023-08-21T14:32:40;6.82;;;6.15;;
7965;SDS011;4028;43.272;26.932;2023-08-21T14:35:07;7.38;;;6.47;;
7965;SDS011;4028;43.272;26.932;2023-08-21T14:37:33;9.15;;;6.00;;
7965;SDS011;4028;43.272;26.932;2023-08-21T14:40:00;7.75;;;6.15;;
7965;SDS011;4028;43.272;26.932;2023-08-21T14:42:25;10.57;;;6.00;;
7965;SDS011;4028;43.272;26.932;2023-08-21T14:44:50;10.60;;;6.70;;
7965;SDS011;4028;43.272;26.932;2023-08-21T14:47:16;10.32;;;6.40;;
7965;SDS011;4028;43.272;26.932;2023-08-21T14:49:41;9.13;;;6.15;;
7965;SDS011;4028;43.272;26.932;2023-08-21T14:52:07;10.38;;;6.20;;
7965;SDS011;4028;43.272;26.932;2023-08-21T14:54:33;12.90;;;6.45;;
7965;SDS011;4028;43.272;26.932;2023-08-21T14:57:00;9.85;;;5.82;;
7965;SDS011;4028;43.272;26.932;2023-08-21T14:59:26;10.77;;;6.50;;
7965;SDS011;4028;43.272;26.932;2023-08-21T15:01:51;6.43;;;5.82;;